Terminal Aerodrome Forecast
Issued by NWS Upton, NY

Current Version | Previous Version | Text Only | Print | Product List | Glossary On
Versions: 1 2 3 4 5 6 7 8 9 10 11 12 13 14 15 16 17 18 19 20 21 22 23 24 25 26 27 28 29 30 31
316 FTUS41 KOKX 191123 TAFJFK TAF KJFK 191123Z 1912/2018 29006KT P6SM BKN130 BKN250 FM191400 29010KT P6SM SCT250 FM192000 31011KT P6SM SCT250 FM201400 33012G16KT P6SM SKC=

USA.gov is the U.S. government's official web portal to all federal, state and local government web resources and services.